My Paraffin — ZCGG8 — position and weather

sailwx.info

Track history (hours):
 
Tides and Currents Weather Stations Pressure Air Temp Water Temp Dewpoint Dewpoint Depression Visibility Wind Speed Wind Dir Waves Ship Positions

My Paraffin

Last reported at 2014-Jul-14 14:05 UTC. Time now 2014-Jul-29 02:40 UTC.
Position N 40°23' E 014°25'.
Warning: this ship's position is 14 days out of date.

Length 60 m; draft 3.4 m.

Type: Pleasure craft. MMSI: 319646000.

Date/timePositionNaut miles runAvg speedWind from/ knotsBaromVisibWave heightAir tempDewpointWater temp
2014-Jul-14 14:05N 40°23' E 014°25'1112.5
2014-Jul-14 13:11N 40°33' E 014°19'812.1
2014-Jul-14 12:33N 40°40' E 014°17'  
2014-Jul-11 12:12N 40°46' E 014°16'811.9
2014-Jul-11 11:30N 40°38' E 014°18'5 2.5
2014-Jul-11 09:29N 40°33' E 014°15'0 0.0
2014-Jul-11 08:29N 40°33' E 014°15'0 0.0
2014-Jul-11 06:11N 40°33' E 014°15'0 0.0
2014-Jul-11 05:17N 40°33' E 014°15'0 0.0
2014-Jul-11 04:29N 40°33' E 014°15'0 0.0
2014-Jul-11 03:29N 40°33' E 014°15'0 0.0
2014-Jul-11 02:17N 40°33' E 014°15'0 0.0
2014-Jul-11 01:23N 40°33' E 014°15'0 0.0
2014-Jul-11 00:29N 40°33' E 014°15'0 0.0
2014-Jul-10 23:29N 40°33' E 014°15'0 0.0
2014-Jul-10 22:29N 40°33' E 014°15'0 0.0
2014-Jul-10 21:05N 40°33' E 014°15'0 0.0
2014-Jul-10 20:29N 40°33' E 014°15'0 0.0
2014-Jul-10 19:29N 40°33' E 014°15'0 0.0
2014-Jul-10 18:17N 40°33' E 014°15'0 0.0
2014-Jul-10 17:32N 40°33' E 014°15'0 0.0
2014-Jul-10 16:32N 40°33' E 014°15'0 0.0
2014-Jul-10 15:32N 40°33' E 014°15'0 0.0
2014-Jul-10 14:32N 40°33' E 014°15'0 0.0
2014-Jul-10 13:32N 40°33' E 014°15'0 0.0
2014-Jul-10 12:32N 40°33' E 014°15'0 0.0
2014-Jul-10 11:33N 40°33' E 014°15'0 0.0
2014-Jul-10 10:33N 40°33' E 014°15'0 0.0
2014-Jul-10 09:33N 40°33' E 014°15'0 0.0
2014-Jul-10 08:20N 40°33' E 014°15'0 0.0
2014-Jul-10 07:33N 40°33' E 014°15'0 0.0
2014-Jul-10 06:33N 40°33' E 014°15'0 0.0
2014-Jul-10 05:33N 40°33' E 014°15'0 0.0
2014-Jul-10 04:33N 40°33' E 014°15'0 0.0
2014-Jul-10 03:33N 40°33' E 014°15'0 0.0
2014-Jul-10 02:30N 40°33' E 014°15'0 0.0
2014-Jul-10 01:34N 40°33' E 014°15'0 0.0
2014-Jul-10 00:24N 40°33' E 014°15'0 0.0
2014-Jul-09 23:31N 40°33' E 014°15'0 0.0
2014-Jul-09 21:28N 40°33' E 014°15'0 0.0
2014-Jul-09 20:31N 40°33' E 014°15'0 0.0
2014-Jul-09 19:31N 40°33' E 014°15'0 0.0
2014-Jul-09 18:33N 40°33' E 014°15'0 0.0
2014-Jul-09 17:32N 40°33' E 014°15'0 0.0
2014-Jul-09 16:31N 40°33' E 014°15'0 0.0
2014-Jul-09 15:29N 40°33' E 014°15'0 0.0
2014-Jul-09 14:32N 40°33' E 014°15'0 0.0
2014-Jul-09 13:30N 40°33' E 014°15'0 0.0
2014-Jul-09 12:32N 40°33' E 014°15'8 8.1
2014-Jul-09 11:33N 40°40' E 014°09'9 8.6
2014-Jul-09 10:31N 40°48' E 014°05'0 0.0
2014-Jul-09 09:19N 40°48' E 014°05'0 0.0
2014-Jul-09 08:10N 40°48' E 014°05'0 0.0
2014-Jul-09 07:31N 40°48' E 014°05'0 0.0
2014-Jul-09 06:22N 40°48' E 014°05'0 0.0
2014-Jul-09 05:32N 40°48' E 014°05'0 0.0
2014-Jul-09 04:33N 40°48' E 014°05'0 0.0
2014-Jul-09 03:33N 40°48' E 014°05'0 0.0
2014-Jul-09 02:34N 40°48' E 014°05'0 0.0
2014-Jul-09 01:33N 40°48' E 014°05'0 0.0
2014-Jul-09 00:33N 40°48' E 014°05'0 0.0
2014-Jul-08 23:33N 40°48' E 014°05'0 0.0
2014-Jul-08 22:33N 40°48' E 014°05'0 0.0
2014-Jul-08 21:33N 40°48' E 014°05'0 0.0
2014-Jul-08 20:34N 40°48' E 014°05'0 0.0
2014-Jul-08 19:33N 40°48' E 014°05'0 0.0
2014-Jul-08 18:33N 40°48' E 014°05'1 1.0
2014-Jul-08 17:33N 40°48' E 014°06'1111.1
2014-Jul-08 16:33N 40°38' E 014°13'  
2014-Jul-06 11:11N 40°34' E 014°19'711.5
2014-Jul-06 10:34N 40°41' E 014°16'  
Track history (hours):
 
Tides and Currents Weather Stations Pressure Air Temp Water Temp Dewpoint Dewpoint Depression Visibility Wind Speed Wind Dir Waves Ship Positions

My Paraffin

Last reported at 2014-Jul-14 14:05 UTC. Time now 2014-Jul-29 02:40 UTC.
Position N 40°23' E 014°25'.
Warning: this ship's position is 14 days out of date.

Length 60 m; draft 3.4 m.

Type: Pleasure craft. MMSI: 319646000.

Date/timePositionNaut miles runAvg speedWind from/ knotsBaromVisibWave heightAir tempDewpointWater temp
2014-Jul-14 14:05N 40°23' E 014°25'1112.5
2014-Jul-14 13:11N 40°33' E 014°19'812.1
2014-Jul-14 12:33N 40°40' E 014°17'  
2014-Jul-11 12:12N 40°46' E 014°16'811.9
2014-Jul-11 11:30N 40°38' E 014°18'5 2.5
2014-Jul-11 09:29N 40°33' E 014°15'0 0.0
2014-Jul-11 08:29N 40°33' E 014°15'0 0.0
2014-Jul-11 06:11N 40°33' E 014°15'0 0.0
2014-Jul-11 05:17N 40°33' E 014°15'0 0.0
2014-Jul-11 04:29N 40°33' E 014°15'0 0.0
2014-Jul-11 03:29N 40°33' E 014°15'0 0.0
2014-Jul-11 02:17N 40°33' E 014°15'0 0.0
2014-Jul-11 01:23N 40°33' E 014°15'0 0.0
2014-Jul-11 00:29N 40°33' E 014°15'0 0.0
2014-Jul-10 23:29N 40°33' E 014°15'0 0.0
2014-Jul-10 22:29N 40°33' E 014°15'0 0.0
2014-Jul-10 21:05N 40°33' E 014°15'0 0.0
2014-Jul-10 20:29N 40°33' E 014°15'0 0.0
2014-Jul-10 19:29N 40°33' E 014°15'0 0.0
2014-Jul-10 18:17N 40°33' E 014°15'0 0.0
2014-Jul-10 17:32N 40°33' E 014°15'0 0.0
2014-Jul-10 16:32N 40°33' E 014°15'0 0.0
2014-Jul-10 15:32N 40°33' E 014°15'0 0.0
2014-Jul-10 14:32N 40°33' E 014°15'0 0.0
2014-Jul-10 13:32N 40°33' E 014°15'0 0.0
2014-Jul-10 12:32N 40°33' E 014°15'0 0.0
2014-Jul-10 11:33N 40°33' E 014°15'0 0.0
2014-Jul-10 10:33N 40°33' E 014°15'0 0.0
2014-Jul-10 09:33N 40°33' E 014°15'0 0.0
2014-Jul-10 08:20N 40°33' E 014°15'0 0.0
2014-Jul-10 07:33N 40°33' E 014°15'0 0.0
2014-Jul-10 06:33N 40°33' E 014°15'0 0.0
2014-Jul-10 05:33N 40°33' E 014°15'0 0.0
2014-Jul-10 04:33N 40°33' E 014°15'0 0.0
2014-Jul-10 03:33N 40°33' E 014°15'0 0.0
2014-Jul-10 02:30N 40°33' E 014°15'0 0.0
2014-Jul-10 01:34N 40°33' E 014°15'0 0.0
2014-Jul-10 00:24N 40°33' E 014°15'0 0.0
2014-Jul-09 23:31N 40°33' E 014°15'0 0.0
2014-Jul-09 21:28N 40°33' E 014°15'0 0.0
2014-Jul-09 20:31N 40°33' E 014°15'0 0.0
2014-Jul-09 19:31N 40°33' E 014°15'0 0.0
2014-Jul-09 18:33N 40°33' E 014°15'0 0.0
2014-Jul-09 17:32N 40°33' E 014°15'0 0.0
2014-Jul-09 16:31N 40°33' E 014°15'0 0.0
2014-Jul-09 15:29N 40°33' E 014°15'0 0.0
2014-Jul-09 14:32N 40°33' E 014°15'0 0.0
2014-Jul-09 13:30N 40°33' E 014°15'0 0.0
2014-Jul-09 12:32N 40°33' E 014°15'8 8.1
2014-Jul-09 11:33N 40°40' E 014°09'9 8.6
2014-Jul-09 10:31N 40°48' E 014°05'0 0.0
2014-Jul-09 09:19N 40°48' E 014°05'0 0.0
2014-Jul-09 08:10N 40°48' E 014°05'0 0.0
2014-Jul-09 07:31N 40°48' E 014°05'0 0.0
2014-Jul-09 06:22N 40°48' E 014°05'0 0.0
2014-Jul-09 05:32N 40°48' E 014°05'0 0.0
2014-Jul-09 04:33N 40°48' E 014°05'0 0.0
2014-Jul-09 03:33N 40°48' E 014°05'0 0.0
2014-Jul-09 02:34N 40°48' E 014°05'0 0.0
2014-Jul-09 01:33N 40°48' E 014°05'0 0.0
2014-Jul-09 00:33N 40°48' E 014°05'0 0.0
2014-Jul-08 23:33N 40°48' E 014°05'0 0.0
2014-Jul-08 22:33N 40°48' E 014°05'0 0.0
2014-Jul-08 21:33N 40°48' E 014°05'0 0.0
2014-Jul-08 20:34N 40°48' E 014°05'0 0.0
2014-Jul-08 19:33N 40°48' E 014°05'0 0.0
2014-Jul-08 18:33N 40°48' E 014°05'1 1.0
2014-Jul-08 17:33N 40°48' E 014°06'1111.1
2014-Jul-08 16:33N 40°38' E 014°13'  
2014-Jul-06 11:11N 40°34' E 014°19'711.5
2014-Jul-06 10:34N 40°41' E 014°16'  

Dump ship's entire track history